Map

Track Data

SID SEASON NUMBER BASIN SUBBASIN NAME ISO_TIME NATURE LAT LON WMO_WIND WMO_PRES WMO_AGENCY TRACK_TYPE DIST2LAND LANDFALL IFLAG USA_AGENCY USA_ATCF_ID USA_LAT USA_LON USA_RECORD USA_STATUS USA_WIND USA_PRES USA_SSHS USA_R34_NE USA_R34_SE USA_R34_SW USA_R34_NW USA_R50_NE USA_R50_SE USA_R50_SW USA_R50_NW USA_R64_NE USA_R64_SE USA_R64_SW USA_R64_NW USA_POCI USA_ROCI USA_RMW USA_EYE TOKYO_LAT TOKYO_LON TOKYO_GRADE TOKYO_WIND TOKYO_PRES TOKYO_R50_DIR TOKYO_R50_LONG TOKYO_R50_SHORT TOKYO_R30_DIR TOKYO_R30_LONG TOKYO_R30_SHORT TOKYO_LAND CMA_LAT CMA_LON CMA_CAT CMA_WIND CMA_PRES HKO_LAT HKO_LON HKO_CAT HKO_WIND HKO_PRES NEWDELHI_LAT NEWDELHI_LON NEWDELHI_GRADE NEWDELHI_WIND NEWDELHI_PRES NEWDELHI_CI NEWDELHI_DP NEWDELHI_POCI REUNION_LAT REUNION_LON REUNION_TYPE REUNION_WIND REUNION_PRES REUNION_TNUM REUNION_CI REUNION_RMW REUNION_R34_NE REUNION_R34_SE REUNION_R34_SW REUNION_R34_NW REUNION_R50_NE REUNION_R50_SE REUNION_R50_SW REUNION_R50_NW REUNION_R64_NE REUNION_R64_SE REUNION_R64_SW REUNION_R64_NW BOM_LAT BOM_LON BOM_TYPE BOM_WIND BOM_PRES BOM_TNUM BOM_CI BOM_RMW BOM_R34_NE BOM_R34_SE BOM_R34_SW BOM_R34_NW BOM_R50_NE BOM_R50_SE BOM_R50_SW BOM_R50_NW BOM_R64_NE BOM_R64_SE BOM_R64_SW BOM_R64_NW BOM_ROCI BOM_POCI BOM_EYE BOM_POS_METHOD BOM_PRES_METHOD NADI_LAT NADI_LON NADI_CAT NADI_WIND NADI_PRES WELLINGTON_LAT WELLINGTON_LON WELLINGTON_WIND WELLINGTON_PRES DS824_LAT DS824_LON DS824_STAGE DS824_WIND DS824_PRES TD9636_LAT TD9636_LON TD9636_STAGE TD9636_WIND TD9636_PRES TD9635_LAT TD9635_LON TD9635_WIND TD9635_PRES TD9635_ROCI NEUMANN_LAT NEUMANN_LON NEUMANN_CLASS NEUMANN_WIND NEUMANN_PRES MLC_LAT MLC_LON MLC_CLASS MLC_WIND MLC_PRES USA_GUST BOM_GUST BOM_GUST_PER REUNION_GUST REUNION_GUST_PER USA_SEAHGT USA_SEARAD_NE USA_SEARAD_SE USA_SEARAD_SW USA_SEARAD_NW STORM_SPEED STORM_DIR
1994047S16124 1994 13 SI WA NOT_NAMED 1994-02-16 00:00:00 TS -16.2000 124.300 main 10 10 O___________O_ jtwc_sh SH171994 -16.2000 124.300 15 -1 -16.2000 124.300 TC 15 1 44
1994047S16124 1994 13 SI WA NOT_NAMED 1994-02-16 03:00:00 TS -16.1600 124.348 main 10 0 P___________P_ SH171994 -16.1600 124.348 15 -1 -16.1600 124.348 TC 15 1 43
1994047S16124 1994 13 SI WA NOT_NAMED 1994-02-16 06:00:00 TS -16.1000 124.400 main 11 0 O___________O_ jtwc_sh SH171994 -16.1000 124.400 15 -1 -16.1000 124.400 TC 15 2 35
1994047S16124 1994 13 SI WA NOT_NAMED 1994-02-16 09:00:00 TS -16.0075 124.458 main 0 0 P___________P_ SH171994 -16.0075 124.458 17 -1 -16.0075 124.458 TC 17 2 27
1994047S16124 1994 13 SI WA NOT_NAMED 1994-02-16 12:00:00 TS -15.9000 124.500 main 0 0 O___________O_ jtwc_sh SH171994 -15.9000 124.500 20 -1 -15.9000 124.500 TC 20 2 13
1994047S16124 1994 13 SI WA NOT_NAMED 1994-02-16 15:00:00 TS -15.8075 124.507 main 0 0 P___________P_ SH171994 -15.8075 124.507 20 -1 -15.8075 124.507 TC 20 2 8
1994047S16124 1994 13 SI WA NOT_NAMED 1994-02-16 18:00:00 TS -15.7000 124.500 main 0 0 O___________O_ jtwc_sh SH171994 -15.7000 124.500 20 -1 -15.7000 124.500 TC 20 3 3
1994047S16124 1994 13 SI WA NOT_NAMED 1994-02-16 21:00:00 TS -15.5425 124.508 main 10 10 P___________P_ SH171994 -15.5425 124.508 20 -1 -15.5425 124.508 TC 20 3 0
1994047S16124 1994 13 SI WA NOT_NAMED 1994-02-17 00:00:00 TS -15.4000 124.500 main 15 15 O___________O_ jtwc_sh SH171994 -15.4000 124.500 20 -1 -15.4000 124.500 TC 20 2 347
1994047S16124 1994 13 SI WA NOT_NAMED 1994-02-17 03:00:00 TS -15.3350 124.458 main 24 24 P___________P_ SH171994 -15.3350 124.458 20 -1 -15.3350 124.458 TC 20 1 317
1994047S16124 1994 13 SI WA NOT_NAMED 1994-02-17 06:00:00 TS -15.3000 124.400 main 31 31 O___________O_ jtwc_sh SH171994 -15.3000 124.400 20 -1 -15.3000 124.400 TC 20 1 315
1994047S16124 1994 13 SI WA NOT_NAMED 1994-02-17 09:00:00 TS -15.2425 124.358 main 39 39 P___________P_ SH171994 -15.2425 124.358 22 -1 -15.2425 124.358 TC 22 1 317
1994047S16124 1994 13 SI WA NOT_NAMED 1994-02-17 12:00:00 TS -15.2000 124.300 main 46 46 O___________O_ jtwc_sh SH171994 -15.2000 124.300 25 -1 -15.2000 124.300 TC 25 2 292
1994047S16124 1994 13 SI WA NOT_NAMED 1994-02-17 15:00:00 TS -15.1850 124.208 main 49 49 P___________P_ SH171994 -15.1850 124.208 25 -1 -15.1850 124.208 TC 25 2 270
1994047S16124 1994 13 SI WA NOT_NAMED 1994-02-17 18:00:00 TS -15.2000 124.100 main 55 55 O___________O_ jtwc_sh SH171994 -15.2000 124.100 25 -1 -15.2000 124.100 TC 25 2 255
1994047S16124 1994 13 SI WA NOT_NAMED 1994-02-17 21:00:00 TS -15.2350 124.015 main 62 54 P___________P_ SH171994 -15.2350 124.015 27 -1 -15.2350 124.015 TC 27 2 243
1994047S16124 1994 13 SI WA NOT_NAMED 1994-02-18 00:00:00 TS -15.3000 123.900 main 63 63 O___________O_ jtwc_sh SH171994 -15.3000 123.900 30 -1 -15.3000 123.900 TC 30 3 244
1994047S16124 1994 13 SI WA NOT_NAMED 1994-02-18 03:00:00 TS -15.3775 123.715 main 78 78 P___________P_ SH171994 -15.3775 123.715 30 -1 -15.3775 123.715 TC 30 4 243
1994047S16124 1994 13 SI WA NOT_NAMED 1994-02-18 06:00:00 TS -15.5000 123.500 main 81 70 O___________O_ jtwc_sh SH171994 -15.5000 123.500 30 -1 -15.5000 123.500 TC 30 5 233
1994047S16124 1994 13 SI WA NOT_NAMED 1994-02-18 09:00:00 TS -15.6850 123.285 main 70 67 P___________P_ SH171994 -15.6850 123.285 30 -1 -15.6850 123.285 TC 30 6 224
1994047S16124 1994 13 SI WA NOT_NAMED 1994-02-18 12:00:00 TS -15.9000 123.100 main 67 44 O___________O_ jtwc_sh SH171994 -15.9000 123.100 30 -1 -15.9000 123.100 TC 30 5 214
1994047S16124 1994 13 SI WA NOT_NAMED 1994-02-18 15:00:00 TS -16.0924 123.000 main 44 22 P___________P_ SH171994 -16.0924 123.000 30 -1 -16.0924 123.000 TC 30 4 206
1994047S16124 1994 13 SI WA NOT_NAMED 1994-02-18 18:00:00 TS -16.3000 122.900 main 22 10 O___________O_ jtwc_sh SH171994 -16.3000 122.900 30 -1 -16.3000 122.900 TC 30 5 212
1994047S16124 1994 13 SI WA NOT_NAMED 1994-02-18 21:00:00 TS -16.5275 122.715 main 15 10 P___________P_ SH171994 -16.5275 122.715 30 -1 -16.5275 122.715 TC 30 6 218
1994047S16124 1994 13 SI WA NOT_NAMED 1994-02-19 00:00:00 TS -16.8000 122.500 main 11 0 O___________O_ jtwc_sh SH171994 -16.8000 122.500 30 -1 -16.8000 122.500 TC 30 7 212
1994047S16124 1994 13 SI WA NOT_NAMED 1994-02-19 03:00:00 TS -17.1425 122.307 main 0 0 P___________P_ SH171994 -17.1425 122.307 30 -1 -17.1425 122.307 TC 30 8 209
1994047S16124 1994 13 SI WA NOT_NAMED 1994-02-19 06:00:00 TS -17.5000 122.100 main 10 0 O___________O_ jtwc_sh SH171994 -17.5000 122.100 30 -1 -17.5000 122.100 TC 30 8 212
1994047S16124 1994 13 SI WA NOT_NAMED 1994-02-19 09:00:00 TS -17.8150 121.865 main 30 30 P___________P_ SH171994 -17.8150 121.865 32 -1 -17.8150 121.865 TC 32 8 218
1994047S16124 1994 13 SI WA NOT_NAMED 1994-02-19 12:00:00 TS -18.1000 121.600 main 46 46 O___________O_ jtwc_sh SH171994 -18.1000 121.600 35 0 -18.1000 121.600 TC 35 8 225
1994047S16124 1994 13 SI WA NOT_NAMED 1994-02-19 15:00:00 TS -18.3575 121.300 main 47 47 P___________P_ SH171994 -18.3575 121.300 35 0 -18.3575 121.300 TC 35 8 229
1994047S16124 1994 13 SI WA NOT_NAMED 1994-02-19 18:00:00 TS -18.6000 121.000 main 73 73 O___________O_ jtwc_sh SH171994 -18.6000 121.000 35 0 -18.6000 121.000 TC 35 7 227
1994047S16124 1994 13 SI WA NOT_NAMED 1994-02-19 21:00:00 TS -18.8499 120.742 main 84 69 P___________P_ SH171994 -18.8499 120.742 35 0 -18.8499 120.742 TC 35 7 223
1994047S16124 1994 13 SI WA NOT_NAMED 1994-02-20 00:00:00 TS -19.1000 120.500 main 69 59 O___________O_ jtwc_sh SH171994 -19.1000 120.500 35 0 -19.1000 120.500 TC 35 7 223
1994047S16124 1994 13 SI WA NOT_NAMED 1994-02-20 03:00:00 TS -19.3500 120.250 main 64 39 P___________P_ SH171994 -19.3500 120.250 35 0 -19.3500 120.250 TC 35 7 223
1994047S16124 1994 13 SI WA NOT_NAMED 1994-02-20 06:00:00 TS -19.6000 120.000 main 39 22 O___________O_ jtwc_sh SH171994 -19.6000 120.000 35 0 -19.6000 120.000 TC 35 7 223
1994047S16124 1994 13 SI WA NOT_NAMED 1994-02-20 09:00:00 TS -19.8574 119.757 main 11 0 P___________P_ SH171994 -19.8574 119.757 32 -1 -19.8574 119.757 TC 32 7 223
1994047S16124 1994 13 SI WA NOT_NAMED 1994-02-20 12:00:00 TS -20.1000 119.500 main 0 0 O___________O_ jtwc_sh SH171994 -20.1000 119.500 30 -1 -20.1000 119.500 TC 30 7 229
1994047S16124 1994 13 SI WA NOT_NAMED 1994-02-20 15:00:00 TS -20.3075 119.207 main 0 0 P___________P_ SH171994 -20.3075 119.207 27 -1 -20.3075 119.207 TC 27 7 235
1994047S16124 1994 13 SI WA NOT_NAMED 1994-02-20 18:00:00 TS -20.5000 118.900 main 0 0 O___________O_ jtwc_sh SH171994 -20.5000 118.900 25 -1 -20.5000 118.900 TC 25 7 235
1994047S16124 1994 13 SI WA NOT_NAMED 1994-02-20 21:00:00 TS -20.7074 118.607 main 0 0 P___________P_ SH171994 -20.7074 118.607 25 -1 -20.7074 118.607 TC 25 7 234
1994047S16124 1994 13 SI WA NOT_NAMED 1994-02-21 00:00:00 TS -20.9000 118.300 main 0 0 O___________O_ jtwc_sh SH171994 -20.9000 118.300 25 -1 -20.9000 118.300 TC 25 7 240
1994047S16124 1994 13 SI WA NOT_NAMED 1994-02-21 03:00:00 TS -21.0575 117.957 main 0 0 P___________P_ SH171994 -21.0575 117.957 22 -1 -21.0575 117.957 TC 22 7 245
1994047S16124 1994 13 SI WA NOT_NAMED 1994-02-21 06:00:00 TS -21.2000 117.600 main 0 0 O___________O_ jtwc_sh SH171994 -21.2000 117.600 20 -1 -21.2000 117.600 TC 20 7 246
1994047S16124 1994 13 SI WA NOT_NAMED 1994-02-21 09:00:00 TS -21.3574 117.250 main 0 0 P___________P_ SH171994 -21.3574 117.250 20 -1 -21.3574 117.250 TC 20 7 245
1994047S16124 1994 13 SI WA NOT_NAMED 1994-02-21 12:00:00 TS -21.5000 116.900 main 0 0 O___________O_ jtwc_sh SH171994 -21.5000 116.900 20 -1 -21.5000 116.900 TC 20 7 249
1994047S16124 1994 13 SI WA NOT_NAMED 1994-02-21 15:00:00 TS -21.6074 116.550 main 0 0 P___________P_ SH171994 -21.6074 116.550 20 -1 -21.6074 116.550 TC 20 7 253
1994047S16124 1994 13 SI WA NOT_NAMED 1994-02-21 18:00:00 TS -21.7000 116.200 main 0 0 O___________O_ jtwc_sh SH171994 -21.7000 116.200 20 -1 -21.7000 116.200 TC 20 7 254
1994047S16124 1994 13 SI WA NOT_NAMED 1994-02-21 21:00:00 TS -21.7924 115.850 main 0 0 P___________P_ SH171994 -21.7924 115.850 20 -1 -21.7924 115.850 TC 20 7 253
1994047S16124 1994 13 SI WA NOT_NAMED 1994-02-22 00:00:00 TS -21.9000 115.500 main 0 0 O___________O_ jtwc_sh SH171994 -21.9000 115.500 20 -1 -21.9000 115.500 TC 20 7 250
1994047S16124 1994 13 SI WA NOT_NAMED 1994-02-22 03:00:00 TS -22.0275 115.142 main 0 0 P___________P_ SH171994 -22.0275 115.142 17 -1 -22.0275 115.142 TC 17 7 245
1994047S16124 1994 13 SI WA NOT_NAMED 1994-02-22 06:00:00 TS -22.2000 114.800 main 0 0 O___________O_ jtwc_sh SH171994 -22.2000 114.800 15 -1 -22.2000 114.800 TC 15 7 237
1994047S16124 1994 13 SI WA NOT_NAMED 1994-02-22 09:00:00 TS -22.4275 114.470 main 0 0 P___________P_ SH171994 -22.4275 114.470 15 -1 -22.4275 114.470 TC 15 7 228
1994047S16124 1994 13 SI WA NOT_NAMED 1994-02-22 12:00:00 TS -22.7000 114.200 main 0 0 O___________O_ jtwc_sh SH171994 -22.7000 114.200 15 -1 -22.7000 114.200 TC 15 7 217
1994047S16124 1994 13 SI WA NOT_NAMED 1994-02-22 15:00:00 TS -22.9924 114.012 main 0 0 P___________P_ SH171994 -22.9924 114.012 15 -1 -22.9924 114.012 TC 15 7 205
1994047S16124 1994 13 SI WA NOT_NAMED 1994-02-22 18:00:00 TS -23.3000 113.900 main 0 0 O___________O_ jtwc_sh SH171994 -23.3000 113.900 15 -1 -23.3000 113.900 TC 15 6 197
1994047S16124 1994 13 SI WA NOT_NAMED 1994-02-22 21:00:00 TS -23.6075 113.813 main 0 0 P___________P_ SH171994 -23.6075 113.813 15 -1 -23.6075 113.813 TC 15 6 188
1994047S16124 1994 13 SI WA NOT_NAMED 1994-02-23 00:00:00 TS -23.9000 113.800 main 0 0 O___________O_ jtwc_sh SH171994 -23.9000 113.800 15 -1 -23.9000 113.800 TC 15 6 174
1994047S16124 1994 13 SI WA NOT_NAMED 1994-02-23 03:00:00 TS -24.1600 113.875 main 0 0 P___________P_ SH171994 -24.1600 113.875 15 -1 -24.1600 113.875 TC 15 5 160
1994047S16124 1994 13 SI WA NOT_NAMED 1994-02-23 06:00:00 TS -24.4000 114.000 main 0 O___________O_ jtwc_sh SH171994 -24.4000 114.000 15 -1 -24.4000 114.000 TC 15 5 155

About IBTrACS Database

This database is a web-friendly format of International Best Track Archive for Climate Stewardship (IBTrACS), a global best track data archive curated by NOAA dating back to 1842.

Updated: 2021-11-26